Netaji Subhash Chandra Bose International Airport
VECC : now visible

Airfield :











YOU CAN JOIN US ON...

 
LOGIN :

Register | Disclaimer

   EN    FR    IT 

 









Legend :    VFR   Marginal VFR   IFR   Intensive IFR   Very Intensive IFR
Visi :
Ceiling :
>= 8 km
>= 3000ft
5 to 8 km
1000 to 3000 ft
1500m to 5 km
500 to 1000 ft
800 to 1500m
200 to 500 ft
< 800m
< 200 ft
Symbols :   Thunderstorms  Fog  Heavy snow  Heavy precipitations  Wind > 20 kt






- Airport Elevation : 16 ft
- IATA code : CCU


VECC - Netaji Subhash Chandra Bose International

CURRENT METAR :
  • 311600Z 00000KT 3200 HZ FEW018 FEW030CB SCT100 27/25 Q1010 NOSIG

EXPIRED METARs :
  • 311530Z 00000KT 3200 HZ FEW018 FEW030CB SCT100 27/25 Q1010 NOSIG
  • 311500Z 00000KT 3200 HZ FEW018 SCT100 27/26 Q1010 NOSIG
  • 311430Z 00000KT 3200 HZ FEW018 SCT100 27/26 Q1010 NOSIG
  • 311400Z 00000KT 3200 HZ FEW018 SCT100 28/26 Q1010 NOSIG
  • 311330Z 11003KT 3200 HZ FEW018 SCT100 28/26 Q1009 NOSIG

TAF TAF VECC
Valid from the 31 at 15:00 until the 01 at 00:00 UTC


311400Z 3115/3124 10005KT 3200 -RA HZ SCT018 BKN090
BECMG 3120/3122 03005KT 2800 HZ SCT020 SCT100
VECF FIR / Asia



MET'MAP, your aeronautical weather chart ! - Copyright ORBIFLY December 2007 - Disclaimer

ORBIFLY MET'MAP TEAM :

Programming & Development : Alexandra Zaïnal
Concept & original design : Baudouin d'Aumeries
Assistance for programming : Marc-Olivier Méhu
Technical & hardware support : Manuel Goepfert

Contact : metmap@orbifly.com




SOURCES & CREDITS :

   NOAA       Earth
Advisory